Time;durP1;ratioP1;P1;durP2;ratioP2;P2;SDS_P1;SDS_P2;PMS_P1;PMS_P2;Temp;Humidity;BMP_temperature;BMP_pressure;BME280_temperature;BME280_humidity;BME280_pressure;Samples;Min_cycle;Max_cycle;Signal;HPM_P1;HPM_P2
2022/05/16 00:00:18;;;;;;;27.15;17.80;;;14.40;96.70;;;;;;5091405;28;20039;-40
2022/05/16 00:02:44;;;;;;;24.85;17.08;;;14.50;96.30;;;;;;5091513;28;20050;-45
2022/05/16 00:05:10;;;;;;;24.20;17.25;;;14.60;96.20;;;;;;5091393;28;20385;-44
2022/05/16 00:07:36;;;;;;;23.73;16.65;;;14.70;96.00;;;;;;5091496;28;20024;-41
2022/05/16 00:10:03;;;;;;;23.73;18.27;;;14.70;95.60;;;;;;5091331;28;20099;-54
2022/05/16 00:12:29;;;;;;;22.48;17.55;;;14.70;95.30;;;;;;5091335;28;20016;-45
2022/05/16 00:14:54;;;;;;;25.98;17.20;;;14.80;95.20;;;;;;5103971;28;20463;-49
2022/05/16 00:17:20;;;;;;;21.95;17.15;;;14.80;95.10;;;;;;5111543;28;20019;-50
2022/05/16 00:19:46;;;;;;;24.65;17.02;;;14.80;94.80;;;;;;5111556;28;20032;-49
2022/05/16 00:22:12;;;;;;;20.58;16.20;;;14.80;95.20;;;;;;5110172;28;20419;-48
2022/05/16 00:24:42;;;;;;;22.67;17.05;;;14.70;95.20;;;;;;5111580;28;20024;-58
2022/05/16 00:27:09;;;;;;;20.55;14.63;;;14.70;95.30;;;;;;5110358;28;20024;-50
2022/05/16 00:29:34;;;;;;;18.30;15.30;;;14.60;95.30;;;;;;5111504;28;20049;-53
2022/05/16 00:32:00;;;;;;;21.75;16.15;;;14.50;95.50;;;;;;5111397;28;20020;-56
2022/05/16 00:34:26;;;;;;;26.50;17.58;;;14.40;95.80;;;;;;5111317;28;20023;-38
2022/05/16 00:36:52;;;;;;;22.52;17.50;;;14.30;95.90;;;;;;5111426;28;20120;-44
2022/05/16 00:39:19;;;;;;;24.80;16.92;;;14.30;96.40;;;;;;5111384;28;20476;-42
2022/05/16 00:41:46;;;;;;;26.63;18.70;;;14.20;96.20;;;;;;5111450;28;20070;-53
2022/05/16 00:44:12;;;;;;;22.40;17.13;;;14.20;96.30;;;;;;5101971;28;20476;-54
2022/05/16 00:46:38;;;;;;;20.10;15.48;;;14.10;96.60;;;;;;5090930;28;20060;-43
2022/05/16 00:49:07;;;;;;;24.67;18.00;;;14.10;96.40;;;;;;5091034;28;20381;-55
2022/05/16 00:51:41;;;;;;;27.08;19.00;;;14.10;96.40;;;;;;5090871;28;20032;-55
2022/05/16 00:54:16;;;;;;;26.48;17.92;;;14.00;96.50;;;;;;5089675;28;20496;-59
2022/05/16 00:56:44;;;;;;;20.80;16.48;;;14.00;96.80;;;;;;5090922;28;20408;-45
2022/05/16 00:59:10;;;;;;;24.05;18.35;;;14.00;96.60;;;;;;5090782;28;20040;-52
2022/05/16 01:07:04;;;;;;;22.80;17.80;;;13.90;96.40;;;;;;5091075;28;20486;-41
2022/05/16 01:09:30;;;;;;;22.85;19.48;;;13.90;96.40;;;;;;5092161;28;20492;-48
2022/05/16 01:11:57;;;;;;;19.00;15.77;;;13.90;96.50;;;;;;5061973;28;20024;-50
2022/05/16 01:14:53;;;;;;;22.02;16.08;;;13.90;96.30;;;;;;5095530;28;20020;-40
2022/05/16 01:17:20;;;;;;;18.40;15.57;;;13.90;96.30;;;;;;5110010;28;20035;-58
2022/05/16 01:19:46;;;;;;;25.55;19.33;;;13.80;96.40;;;;;;5114694;28;20442;-48
2022/05/16 01:22:25;;;;;;;28.08;20.38;;;13.80;96.90;;;;;;5114679;28;20061;-40
2022/05/16 01:24:52;;;;;;;27.33;21.58;;;13.70;97.30;;;;;;5114896;28;20036;-56
2022/05/16 01:27:18;;;;;;;24.60;19.77;;;13.70;97.30;;;;;;5114817;28;20036;-50
2022/05/16 01:29:44;;;;;;;23.52;18.75;;;13.70;97.30;;;;;;5114595;28;20047;-48
2022/05/16 01:32:10;;;;;;;21.90;19.48;;;13.70;97.20;;;;;;5114605;28;20495;-52
2022/05/16 01:34:37;;;;;;;27.67;20.63;;;13.70;97.10;;;;;;5114482;28;20032;-56
2022/05/16 01:37:03;;;;;;;29.40;19.25;;;13.70;97.20;;;;;;5114389;28;20126;-48
2022/05/16 01:39:29;;;;;;;28.25;21.02;;;13.70;97.30;;;;;;5114331;28;20114;-44
2022/05/16 01:41:54;;;;;;;29.33;22.30;;;13.70;97.30;;;;;;5114405;28;20034;-53
2022/05/16 01:44:21;;;;;;;29.08;21.30;;;13.70;97.30;;;;;;5101535;28;20062;-55
2022/05/16 01:46:46;;;;;;;29.85;22.55;;;13.70;97.30;;;;;;5093890;28;20077;-46
2022/05/16 01:49:12;;;;;;;29.25;22.10;;;13.80;97.30;;;;;;5093809;28;20032;-57
2022/05/16 01:51:39;;;;;;;24.88;19.55;;;13.80;97.30;;;;;;5094050;28;20511;-48
2022/05/16 01:54:05;;;;;;;23.95;19.23;;;13.80;97.20;;;;;;5093989;28;20055;-50
2022/05/16 01:56:33;;;;;;;30.60;20.90;;;13.80;97.20;;;;;;5093644;28;20440;-58
2022/05/16 01:59:01;;;;;;;26.33;21.33;;;13.80;97.20;;;;;;5093639;28;20108;-42
2022/05/16 02:01:28;;;;;;;29.88;21.58;;;13.80;97.40;;;;;;5093467;28;20496;-46
2022/05/16 02:03:53;;;;;;;27.40;20.55;;;13.80;97.30;;;;;;5093779;28;20028;-55
2022/05/16 02:06:19;;;;;;;28.77;20.33;;;13.70;97.00;;;;;;5093675;28;20027;-53
2022/05/16 02:08:47;;;;;;;25.83;19.73;;;13.80;97.10;;;;;;5093654;28;20024;-54
2022/05/16 02:11:14;;;;;;;27.70;18.98;;;13.80;97.20;;;;;;5093398;28;20420;-53
2022/05/16 02:13:41;;;;;;;29.20;17.10;;;13.90;97.30;;;;;;5098414;28;20028;-50
2022/05/16 02:16:08;;;;;;;34.45;17.10;;;13.90;97.20;;;;;;5113614;28;20106;-57
2022/05/16 02:18:33;;;;;;;22.75;15.55;;;14.00;97.00;;;;;;5113874;28;20023;-41
2022/05/16 02:26:28;;;;;;;17.52;12.18;;;14.30;96.70;;;;;;5113478;28;20108;-48
2022/05/16 02:28:53;;;;;;;12.90;10.85;;;14.40;96.40;;;;;;5113494;28;20081;-43
2022/05/16 02:31:22;;;;;;;20.73;10.88;;;14.40;96.40;;;;;;5113385;28;20052;-48
2022/05/16 02:33:48;;;;;;;15.77;10.60;;;14.40;96.30;;;;;;5113421;28;20101;-40
2022/05/16 02:36:15;;;;;;;17.95;10.70;;;14.40;96.40;;;;;;5113185;28;20235;-46
2022/05/16 02:38:41;;;;;;;17.08;10.68;;;14.40;96.50;;;;;;5113284;28;20039;-53
2022/05/16 02:41:07;;;;;;;12.40;9.82;;;14.40;96.70;;;;;;5113208;28;20032;-38
2022/05/16 02:43:33;;;;;;;16.17;10.95;;;14.40;96.40;;;;;;5105040;28;20039;-48
2022/05/16 02:45:59;;;;;;;16.27;10.77;;;14.30;96.30;;;;;;5092710;28;20105;-42
2022/05/16 02:48:24;;;;;;;18.40;12.20;;;14.30;96.30;;;;;;5092698;28;20099;-58
2022/05/16 02:50:50;;;;;;;15.88;9.95;;;14.20;96.30;;;;;;5091395;28;20054;-52
2022/05/16 02:53:16;;;;;;;18.02;10.35;;;14.20;96.40;;;;;;5091310;28;20067;-53
2022/05/16 02:55:42;;;;;;;12.70;9.60;;;14.20;96.60;;;;;;5092558;28;20020;-59
2022/05/16 02:58:09;;;;;;;13.95;9.13;;;14.10;96.50;;;;;;5092728;28;20081;-44
2022/05/16 03:00:35;;;;;;;14.55;9.05;;;14.10;96.60;;;;;;5093661;28;20097;-43
2022/05/16 03:03:01;;;;;;;15.43;10.13;;;14.10;96.60;;;;;;5092786;28;20028;-58
2022/05/16 03:05:27;;;;;;;10.35;8.50;;;14.00;96.80;;;;;;5092354;28;20020;-57
2022/05/16 03:07:52;;;;;;;17.40;8.45;;;14.00;96.80;;;;;;5092240;28;20419;-46
2022/05/16 03:10:18;;;;;;;13.07;8.48;;;14.00;97.10;;;;;;5092317;28;20032;-57
2022/05/16 03:12:45;;;;;;;11.60;8.70;;;14.00;97.20;;;;;;5093142;28;20031;-48
2022/05/16 03:15:12;;;;;;;13.82;8.98;;;14.00;97.10;;;;;;5112749;28;20028;-58
2022/05/16 03:17:38;;;;;;;15.27;8.68;;;13.90;97.00;;;;;;5112554;28;20080;-55
2022/05/16 03:20:08;;;;;;;22.25;8.73;;;13.90;97.20;;;;;;5112422;28;20034;-52
2022/05/16 03:22:34;;;;;;;14.95;8.23;;;13.90;97.20;;;;;;5112516;28;20019;-58
2022/05/16 03:25:00;;;;;;;13.60;8.20;;;13.90;97.50;;;;;;5112172;27;20377;-54
2022/05/16 03:27:25;;;;;;;14.02;8.27;;;13.90;97.70;;;;;;5111163;28;20065;-51
2022/05/16 03:29:51;;;;;;;12.50;8.20;;;14.00;98.00;;;;;;5112223;28;20118;-48
2022/05/16 03:32:17;;;;;;;16.67;8.60;;;14.00;98.10;;;;;;5111602;28;20472;-51
2022/05/16 03:34:43;;;;;;;12.98;8.93;;;14.10;98.20;;;;;;5112391;28;20034;-45
2022/05/16 03:37:09;;;;;;;13.02;9.13;;;14.10;98.20;;;;;;5112027;28;20411;-61
2022/05/16 03:42:18;;;;;;;14.52;8.40;;;14.20;97.90;;;;;;5111760;28;20126;-49
2022/05/16 03:44:45;;;;;;;13.25;9.00;;;14.20;97.60;;;;;;5091882;28;20111;-42
2022/05/16 03:47:10;;;;;;;13.52;8.43;;;14.20;97.60;;;;;;5091648;28;20473;-55
2022/05/16 03:49:36;;;;;;;13.82;9.40;;;14.20;97.50;;;;;;5091460;28;20133;-39
2022/05/16 03:52:02;;;;;;;12.30;9.43;;;14.10;97.30;;;;;;5091613;28;20051;-44
2022/05/16 03:54:28;;;;;;;14.05;8.80;;;14.10;97.40;;;;;;5091640;28;20077;-40
2022/05/16 03:56:54;;;;;;;19.08;10.05;;;14.00;97.30;;;;;;5091609;28;20356;-41
2022/05/16 03:59:19;;;;;;;12.05;8.88;;;14.00;97.10;;;;;;5090334;28;20028;-37
2022/05/16 04:01:45;;;;;;;15.45;9.80;;;14.00;96.90;;;;;;5091502;28;20449;-48
2022/05/16 04:04:11;;;;;;;17.27;10.32;;;13.90;96.90;;;;;;5091408;28;20385;-55
2022/05/16 04:06:37;;;;;;;18.55;10.23;;;13.90;97.10;;;;;;5091253;28;20028;-51
2022/05/16 04:09:04;;;;;;;14.73;10.45;;;13.80;97.30;;;;;;5090156;28;20503;-44
2022/05/16 04:11:30;;;;;;;14.70;9.77;;;13.70;97.30;;;;;;5091577;28;20032;-41
2022/05/16 04:13:56;;;;;;;20.98;10.73;;;13.70;97.40;;;;;;5104088;28;20043;-42
2022/05/16 04:16:21;;;;;;;14.75;10.50;;;13.60;97.70;;;;;;5107524;28;20020;-39
2022/05/16 04:18:47;;;;;;;16.88;10.25;;;13.60;97.80;;;;;;5098056;28;20153;-38
2022/05/16 04:21:13;;;;;;;15.90;9.88;;;13.60;97.90;;;;;;5091156;28;20041;-57
2022/05/16 04:23:39;;;;;;;12.48;9.25;;;13.70;97.80;;;;;;5091289;28;20032;-48
2022/05/16 04:26:05;;;;;;;15.57;9.50;;;13.70;97.80;;;;;;5091361;28;20486;-50
2022/05/16 04:28:30;;;;;;;12.60;8.60;;;13.70;97.70;;;;;;5090137;28;20111;-43
2022/05/16 04:30:56;;;;;;;16.35;9.40;;;13.70;97.60;;;;;;5089916;28;20435;-54
2022/05/16 04:33:22;;;;;;;16.05;10.20;;;13.70;97.50;;;;;;5091164;28;20073;-46
2022/05/16 04:35:48;;;;;;;18.33;9.30;;;13.80;97.50;;;;;;5090781;28;20059;-51
2022/05/16 04:38:14;;;;;;;16.75;9.23;;;13.70;97.40;;;;;;5091112;28;20497;-57
2022/05/16 04:42:40;;;;;;;11.43;8.82;;;13.70;97.20;;;;;;5090950;28;20082;-56
2022/05/16 04:43:25;;;;;;;13.18;9.15;;;13.70;97.20;;;;;;5100271;28;20027;-61
2022/05/16 04:45:51;;;;;;;18.00;9.52;;;13.70;97.20;;;;;;5110845;28;20031;-38
2022/05/16 04:48:17;;;;;;;18.60;8.88;;;13.80;97.60;;;;;;5079642;28;20100;-57
2022/05/16 04:50:43;;;;;;;20.25;9.02;;;13.90;97.70;;;;;;5078429;28;20495;-43
2022/05/16 04:53:08;;;;;;;16.90;7.65;;;13.90;97.80;;;;;;5080132;28;20028;-49
2022/05/16 04:55:35;;;;;;;18.40;7.35;;;13.90;97.90;;;;;;5086309;28;20027;-60
2022/05/16 04:58:01;;;;;;;26.50;7.90;;;14.00;98.10;;;;;;5084114;28;20024;-55
2022/05/16 05:00:27;;;;;;;25.92;8.30;;;14.00;98.30;;;;;;5077639;28;20484;-43
2022/05/16 05:02:53;;;;;;;26.20;8.90;;;14.00;98.40;;;;;;5091426;28;20495;-56
2022/05/16 05:05:19;;;;;;;32.20;10.27;;;14.10;98.50;;;;;;5076449;28;20029;-56
2022/05/16 05:07:46;;;;;;;26.83;9.93;;;14.10;98.30;;;;;;5083093;28;20370;-57
2022/05/16 05:15:45;;;;;;;31.50;12.48;;;14.30;98.20;;;;;;5098355;28;20055;-52
2022/05/16 05:18:11;;;;;;;30.27;12.82;;;14.30;98.20;;;;;;5089740;28;20473;-54
2022/05/16 05:20:36;;;;;;;30.15;12.63;;;14.30;98.10;;;;;;5095904;28;20031;-53
2022/05/16 05:23:04;;;;;;;39.10;12.45;;;14.30;98.10;;;;;;5085672;28;20028;-55
2022/05/16 05:25:30;;;;;;;22.83;11.82;;;14.40;98.20;;;;;;5074052;28;20024;-52
2022/05/16 05:27:59;;;;;;;33.15;13.13;;;14.40;98.20;;;;;;5073903;28;20108;-50
2022/05/16 05:30:25;;;;;;;27.35;12.63;;;14.50;98.30;;;;;;5085137;28;20012;-61
2022/05/16 05:32:52;;;;;;;40.80;13.95;;;14.50;98.10;;;;;;5094196;28;20063;-58
2022/05/16 05:35:19;;;;;;;29.15;14.48;;;14.60;98.10;;;;;;5094022;28;20534;-57
2022/05/16 05:37:45;;;;;;;32.90;15.35;;;14.60;98.10;;;;;;5090640;28;20063;-49
2022/05/16 05:40:13;;;;;;;30.50;15.90;;;14.60;98.10;;;;;;5083452;28;20048;-56
2022/05/16 05:42:39;;;;;;;36.42;16.23;;;14.70;98.10;;;;;;5091555;28;20030;-51
2022/05/16 05:45:07;;;;;;;35.05;17.20;;;14.70;98.10;;;;;;5087513;28;20135;-55
2022/05/16 05:47:33;;;;;;;38.22;17.92;;;14.70;98.30;;;;;;5088523;28;20457;-48
2022/05/16 05:50:01;;;;;;;30.90;18.73;;;14.70;98.20;;;;;;5102685;28;20043;-41
2022/05/16 05:52:28;;;;;;;36.57;19.67;;;14.80;98.30;;;;;;5092422;28;20097;-54
2022/05/16 05:54:55;;;;;;;42.38;22.83;;;14.90;98.40;;;;;;5091893;28;20545;-56
2022/05/16 05:57:21;;;;;;;34.00;21.80;;;14.90;98.30;;;;;;5093773;28;20047;-52
2022/05/16 05:59:47;;;;;;;45.65;24.70;;;15.00;98.30;;;;;;5093534;28;20405;-55
2022/05/16 06:02:14;;;;;;;40.08;23.58;;;15.00;98.30;;;;;;5093518;28;20099;-48
2022/05/16 06:04:40;;;;;;;44.00;24.70;;;15.10;98.30;;;;;;5093534;28;20020;-40
2022/05/16 06:07:06;;;;;;;42.55;22.88;;;15.10;98.20;;;;;;5092733;28;20034;-56
2022/05/16 06:09:35;;;;;;;35.63;22.10;;;15.10;97.90;;;;;;5081075;28;20024;-39
2022/05/16 06:12:02;;;;;;;37.35;20.50;;;15.10;97.80;;;;;;5070804;28;20679;-52
2022/05/16 06:14:28;;;;;;;36.50;19.83;;;15.10;97.90;;;;;;5070132;28;20548;-60
2022/05/16 06:16:55;;;;;;;36.72;19.83;;;15.10;97.80;;;;;;5073020;28;20162;-48
2022/05/16 06:19:21;;;;;;;34.78;20.38;;;15.10;97.70;;;;;;5072376;28;20579;-55
2022/05/16 06:21:47;;;;;;;37.53;19.63;;;15.10;97.50;;;;;;5071710;28;20032;-47
2022/05/16 06:26:58;;;;;;;34.95;20.60;;;15.00;97.40;;;;;;5071237;28;20060;-54
2022/05/16 06:29:25;;;;;;;40.55;19.98;;;15.00;97.30;;;;;;5071467;28;20016;-50
2022/05/16 06:31:51;;;;;;;35.97;21.33;;;14.90;97.20;;;;;;5070003;28;20025;-50
2022/05/16 06:34:17;;;;;;;40.00;21.48;;;14.80;97.30;;;;;;5071701;28;20028;-52
2022/05/16 06:36:42;;;;;;;37.83;22.05;;;14.80;97.30;;;;;;5071456;28;20040;-56
2022/05/16 06:39:08;;;;;;;46.85;21.55;;;14.80;97.60;;;;;;5085425;28;20473;-50
2022/05/16 06:41:34;;;;;;;35.78;19.45;;;14.80;97.60;;;;;;5092781;28;20024;-42
2022/05/16 06:44:01;;;;;;;33.65;18.73;;;14.90;97.60;;;;;;5091465;28;20028;-52
2022/05/16 06:46:27;;;;;;;34.45;17.23;;;15.10;97.30;;;;;;5092843;28;20013;-49
2022/05/16 06:48:53;;;;;;;33.03;17.42;;;15.30;96.60;;;;;;5091566;28;20032;-49
2022/05/16 06:51:18;;;;;;;30.02;17.02;;;15.50;96.90;;;;;;5092583;28;20532;-51
2022/05/16 06:53:45;;;;;;;30.85;15.40;;;15.70;96.30;;;;;;5084492;28;20556;-53
2022/05/16 06:56:10;;;;;;;27.17;14.77;;;15.90;96.10;;;;;;5089666;28;20519;-51
2022/05/16 06:58:36;;;;;;;24.92;13.20;;;16.00;95.50;;;;;;5091642;28;20048;-45
2022/05/16 07:01:03;;;;;;;25.88;12.48;;;16.20;95.40;;;;;;5091353;28;20032;-49
2022/05/16 07:03:29;;;;;;;32.13;11.98;;;16.00;94.80;;;;;;5090798;28;20017;-42
2022/05/16 07:05:56;;;;;;;35.00;11.68;;;15.90;95.10;;;;;;5078286;28;20133;-49
2022/05/16 07:08:22;;;;;;;25.33;12.35;;;15.80;95.30;;;;;;5090843;28;20032;-60
2022/05/16 07:10:50;;;;;;;25.08;10.82;;;15.90;95.40;;;;;;5081942;28;20027;-46
2022/05/16 07:13:16;;;;;;;24.48;10.82;;;15.80;95.60;;;;;;5071986;28;20064;-51
2022/05/16 07:15:42;;;;;;;22.33;10.70;;;15.70;95.40;;;;;;5088443;28;20023;-54
2022/05/16 07:18:08;;;;;;;22.15;9.80;;;15.80;95.50;;;;;;5091243;28;20035;-45
2022/05/16 07:20:35;;;;;;;31.73;11.13;;;16.00;95.50;;;;;;5092183;28;20032;-54
2022/05/16 07:23:02;;;;;;;28.00;10.95;;;16.00;95.60;;;;;;5092222;28;20023;-52
2022/05/16 07:25:29;;;;;;;21.52;9.20;;;16.10;95.40;;;;;;5092080;28;20055;-48
2022/05/16 07:27:58;;;;;;;23.73;8.68;;;16.10;94.60;;;;;;5091972;28;20032;-52
2022/05/16 07:30:33;;;;;;;24.73;8.48;;;16.10;94.60;;;;;;5089063;28;20077;-47
2022/05/16 07:32:59;;;;;;;20.10;8.13;;;16.00;94.60;;;;;;5091625;28;20431;-50
2022/05/16 07:35:32;;;;;;;23.77;8.07;;;16.10;94.70;;;;;;5091731;28;20020;-42
2022/05/16 07:37:58;;;;;;;19.90;8.38;;;16.10;93.70;;;;;;5086477;28;20025;-52
2022/05/16 07:40:35;;;;;;;15.27;7.50;;;15.90;94.90;;;;;;5076168;28;20036;-54
2022/05/16 07:43:02;;;;;;;22.77;8.50;;;16.10;95.00;;;;;;5091740;28;20095;-52
2022/05/16 07:45:28;;;;;;;21.67;7.63;;;16.20;95.00;;;;;;5075722;28;20075;-57
2022/05/16 07:47:55;;;;;;;24.15;6.68;;;16.50;94.20;;;;;;5070657;28;20059;-52
2022/05/16 07:50:21;;;;;;;18.73;7.07;;;16.60;94.30;;;;;;5075263;28;20469;-49
2022/05/16 07:52:48;;;;;;;21.95;7.88;;;16.80;94.10;;;;;;5089767;28;20016;-53
2022/05/16 07:55:20;;;;;;;21.30;6.88;;;16.90;93.40;;;;;;5089907;28;20030;-56
2022/05/16 07:57:45;;;;;;;18.30;5.97;;;16.90;93.10;;;;;;5088304;28;20024;-40
2022/05/16 08:00:12;;;;;;;12.70;5.43;;;16.70;93.40;;;;;;5091282;28;20477;-42
2022/05/16 08:02:39;;;;;;;13.95;5.82;;;16.70;93.60;;;;;;5091188;28;20024;-38
2022/05/16 08:05:07;;;;;;;21.00;6.45;;;16.70;92.90;;;;;;5091459;28;20428;-60
2022/05/16 08:07:32;;;;;;;19.58;6.22;;;16.80;93.20;;;;;;5091430;28;20024;-53
2022/05/16 08:12:42;;;;;;;16.75;5.70;;;17.20;92.50;;;;;;5091555;28;20058;-40
2022/05/16 08:15:09;;;;;;;16.48;5.80;;;17.40;92.70;;;;;;5091337;28;20464;-52
2022/05/16 08:17:34;;;;;;;23.42;6.32;;;17.30;92.40;;;;;;5090919;28;20477;-39
2022/05/16 08:20:02;;;;;;;16.20;6.05;;;17.20;92.60;;;;;;5091263;28;20036;-58
2022/05/16 08:22:33;;;;;;;17.63;5.80;;;17.30;93.10;;;;;;5091290;28;20114;-47
2022/05/16 08:24:59;;;;;;;16.30;5.80;;;17.30;92.50;;;;;;5091249;28;20024;-45
2022/05/16 08:27:26;;;;;;;20.40;5.20;;;17.10;91.90;;;;;;5091155;28;20027;-44
2022/05/16 08:29:52;;;;;;;16.83;5.93;;;17.10;92.30;;;;;;5090967;28;20032;-44
2022/05/16 08:32:23;;;;;;;17.80;5.55;;;17.10;92.50;;;;;;5091400;28;20024;-47
2022/05/16 08:34:58;;;;;;;16.20;5.85;;;17.10;92.20;;;;;;5090765;28;20024;-44
2022/05/16 08:40:09;;;;;;;19.77;6.32;;;17.30;93.30;;;;;;5091214;28;20051;-38
2022/05/16 08:42:43;;;;;;;16.25;5.32;;;17.40;93.10;;;;;;5090764;28;20024;-39
2022/05/16 08:45:39;;;;;;;13.98;4.43;;;17.60;92.70;;;;;;5090400;28;20032;-38
2022/05/16 08:48:09;;;;;;;21.15;5.25;;;17.90;91.00;;;;;;5091124;28;20036;-39
2022/05/16 08:50:53;;;;;;;;;;;18.00;90.10;;;;;;5091403;28;20496;-46
2022/05/16 08:53:23;;;;;;;14.13;4.75;;;18.30;90.10;;;;;;5090203;28;19915;-50
2022/05/16 08:55:56;;;;;;;20.63;5.38;;;18.20;90.40;;;;;;5090605;28;20023;-53
2022/05/16 08:58:43;;;;;;;20.25;4.20;;;18.60;91.50;;;;;;5090876;28;20099;-40
2022/05/16 09:01:18;;;;;;;21.30;4.70;;;19.30;87.70;;;;;;5081366;28;20032;-42
2022/05/16 09:03:51;;;;;;;17.15;4.38;;;19.50;85.80;;;;;;5070285;28;20036;-43
2022/05/16 09:06:38;;;;;;;14.63;4.18;;;19.30;84.10;;;;;;5070561;28;20048;-37
2022/05/16 09:09:20;;;;;;;16.70;4.35;;;19.50;82.90;;;;;;5070604;28;20025;-49
2022/05/16 09:12:12;;;;;;;15.35;3.85;;;19.80;82.40;;;;;;5070619;28;20027;-41
2022/05/16 09:14:52;;;;;;;19.48;4.32;;;20.20;84.10;;;;;;5086842;28;20099;-51
2022/05/16 09:17:39;;;;;;;22.20;5.13;;;20.50;81.10;;;;;;5090393;28;20028;-44
2022/05/16 09:20:23;;;;;;;16.80;4.13;;;20.60;81.10;;;;;;5087251;28;20028;-47
2022/05/16 09:22:57;;;;;;;16.48;3.65;;;20.60;77.80;;;;;;5090093;28;20059;-49
2022/05/16 09:25:28;;;;;;;21.63;4.53;;;20.50;80.00;;;;;;5089725;28;20085;-45
2022/05/16 09:30:46;;;;;;;17.27;5.40;;;19.70;83.00;;;;;;5092769;28;20835;-41
2022/05/16 09:33:22;;;;;;;20.20;5.15;;;19.50;85.50;;;;;;5096493;28;20024;-47
2022/05/16 09:36:02;;;;;;;19.10;4.78;;;19.70;87.10;;;;;;5093361;28;20076;-40
2022/05/16 09:38:28;;;;;;;20.77;4.68;;;20.10;82.90;;;;;;5093652;28;20064;-41
2022/05/16 09:40:54;;;;;;;18.98;4.75;;;20.40;81.40;;;;;;5093211;28;20036;-46
2022/05/16 09:43:23;;;;;;;19.17;5.20;;;20.30;80.20;;;;;;5092184;28;20019;-47
2022/05/16 09:46:01;;;;;;;17.98;5.35;;;20.20;79.70;;;;;;5093279;28;20484;-52
2022/05/16 09:48:26;;;;;;;19.38;5.30;;;20.00;79.70;;;;;;5093277;28;20028;-53
2022/05/16 09:51:05;;;;;;;19.13;4.93;;;19.90;80.90;;;;;;5092933;28;20034;-48
2022/05/16 09:53:42;;;;;;;19.05;5.43;;;19.70;80.70;;;;;;5093285;28;20055;-52
2022/05/16 09:56:28;;;;;;;16.67;5.13;;;19.20;82.50;;;;;;5093110;28;20028;-55
2022/05/16 09:59:00;;;;;;;17.33;5.93;;;19.10;81.50;;;;;;5092871;28;20028;-46
2022/05/16 10:01:40;;;;;;;16.48;5.68;;;18.90;83.90;;;;;;5093188;28;20435;-54
2022/05/16 10:04:09;;;;;;;;;;;18.70;85.50;;;;;;5088772;28;20503;-54
2022/05/16 10:06:37;;;;;;;22.30;4.90;;;18.40;85.40;;;;;;5092993;28;19908;-45
2022/05/16 10:09:09;;;;;;;20.60;5.00;;;18.40;86.50;;;;;;5092877;28;20016;-52
2022/05/16 10:11:37;;;;;;;23.50;5.35;;;18.00;86.50;;;;;;5092873;28;20069;-55
2022/05/16 10:14:04;;;;;;;21.70;5.80;;;17.90;88.70;;;;;;5091586;28;20116;-59
2022/05/16 10:16:31;;;;;;;21.05;6.18;;;17.70;88.80;;;;;;5091803;28;20031;-50
2022/05/16 10:19:22;;;;;;;19.15;4.85;;;17.60;88.10;;;;;;5092837;28;20485;-41
2022/05/16 10:21:53;;;;;;;22.80;5.68;;;17.50;90.20;;;;;;5090153;28;20086;-49
2022/05/16 10:24:20;;;;;;;21.60;5.63;;;17.50;90.20;;;;;;5093118;28;20476;-59
2022/05/16 10:26:48;;;;;;;18.30;5.03;;;17.40;90.20;;;;;;5093123;28;20020;-58
2022/05/16 10:29:25;;;;;;;16.13;5.13;;;17.70;90.70;;;;;;5081107;28;20035;-52
2022/05/16 10:34:55;;;;;;;17.75;4.72;;;18.40;89.40;;;;;;5093144;28;20067;-50
2022/05/16 10:37:24;;;;;;;24.20;5.30;;;18.80;87.30;;;;;;5092628;28;20109;-49
2022/05/16 10:40:02;;;;;;;20.80;5.18;;;18.90;84.40;;;;;;5092707;28;20085;-46
2022/05/16 10:42:49;;;;;;;20.88;4.45;;;19.20;83.70;;;;;;5092884;28;20028;-47
2022/05/16 10:45:21;;;;;;;20.63;4.65;;;19.30;83.50;;;;;;5093111;28;20028;-47
2022/05/16 10:47:56;;;;;;;14.40;4.00;;;19.60;81.40;;;;;;5092585;28;20027;-41
2022/05/16 10:50:44;;;;;;;16.92;4.60;;;19.80;84.20;;;;;;5092764;28;20020;-41
2022/05/16 10:53:23;;;;;;;17.35;4.53;;;19.90;79.40;;;;;;5090421;28;20417;-45
2022/05/16 10:56:35;;;;;;;18.38;4.22;;;20.30;76.70;;;;;;5092635;28;20491;-54
2022/05/16 10:59:12;;;;;;;18.90;4.53;;;20.50;74.70;;;;;;5092329;28;20103;-42
2022/05/16 11:01:52;;;;;;;18.45;4.68;;;20.80;81.50;;;;;;5092123;28;20123;-47
2022/05/16 11:04:54;;;;;;;11.70;4.05;;;21.10;80.20;;;;;;5091138;28;20065;-55
2022/05/16 11:07:25;;;;;;;20.38;4.30;;;21.60;80.50;;;;;;5092278;28;20069;-43
2022/05/16 11:10:08;;;;;;;18.80;4.35;;;22.20;77.20;;;;;;5092561;28;20032;-50
2022/05/16 11:13:06;;;;;;;15.73;3.85;;;22.90;74.60;;;;;;5091050;28;20036;-45
2022/05/16 11:15:50;;;;;;;17.85;4.10;;;23.10;71.60;;;;;;5092019;28;20016;-50
2022/05/16 11:18:30;;;;;;;16.10;3.78;;;23.00;67.40;;;;;;5092208;28;20032;-44
2022/05/16 11:21:34;;;;;;;22.73;4.03;;;22.70;68.80;;;;;;5092012;28;20024;-44
2022/05/16 11:24:16;;;;;;;14.65;4.40;;;21.80;68.50;;;;;;5087786;28;20123;-57
2022/05/16 11:27:02;;;;;;;16.38;4.25;;;21.20;72.10;;;;;;5091884;28;20024;-53
2022/05/16 11:29:44;;;;;;;16.70;4.35;;;21.50;80.00;;;;;;5073145;28;20111;-53
2022/05/16 11:32:39;;;;;;;20.65;4.07;;;22.10;73.70;;;;;;5071682;28;20021;-60
2022/05/16 11:35:27;;;;;;;14.93;3.60;;;22.90;77.00;;;;;;5071750;28;20025;-58
2022/05/16 11:38:13;;;;;;;15.13;3.53;;;23.50;72.20;;;;;;5071767;28;20036;-46
2022/05/16 11:40:46;;;;;;;14.25;3.95;;;23.10;67.00;;;;;;5071412;28;20516;-54
2022/05/16 11:43:26;;;;;;;15.90;3.80;;;22.40;68.70;;;;;;5071681;28;20044;-50
2022/05/16 11:46:17;;;;;;;18.75;3.92;;;21.90;68.90;;;;;;5071388;28;20104;-49
2022/05/16 11:49:14;;;;;;;18.05;3.90;;;21.50;72.00;;;;;;5086642;28;20157;-51
2022/05/16 11:52:00;;;;;;;12.40;3.83;;;21.40;75.20;;;;;;5091243;28;20377;-53
2022/05/16 11:54:32;;;;;;;17.50;3.70;;;21.80;72.80;;;;;;5091677;28;20032;-43
2022/05/16 12:03:08;;;;;;;18.20;3.95;;;22.20;68.20;;;;;;5091572;28;20070;-52
2022/05/16 12:05:36;;;;;;;16.52;4.03;;;22.10;69.20;;;;;;5091301;28;20031;-55
2022/05/16 12:08:13;;;;;;;14.63;3.33;;;21.90;71.50;;;;;;5091269;28;20035;-46
2022/05/16 12:10:57;;;;;;;13.43;3.45;;;22.00;71.60;;;;;;5091288;28;20020;-40
2022/05/16 12:13:27;;;;;;;15.00;3.17;;;22.10;70.80;;;;;;5091432;28;20023;-53
2022/05/16 12:16:18;;;;;;;22.60;4.18;;;21.90;69.20;;;;;;5090697;28;20023;-44
2022/05/16 12:18:47;;;;;;;17.23;3.83;;;22.00;70.20;;;;;;5090821;28;20042;-40
2022/05/16 12:21:33;;;;;;;15.85;3.80;;;21.90;71.00;;;;;;5090808;28;20035;-40
2022/05/16 12:24:27;;;;;;;14.75;3.80;;;21.90;71.20;;;;;;5090647;28;20024;-44
2022/05/16 12:27:29;;;;;;;18.02;3.55;;;22.20;70.90;;;;;;5080357;28;20101;-42
2022/05/16 12:30:01;;;;;;;13.90;3.22;;;22.30;69.90;;;;;;5090041;28;20018;-50
2022/05/16 12:32:30;;;;;;;13.98;3.58;;;22.20;70.30;;;;;;5090610;28;20105;-40
2022/05/16 12:35:05;;;;;;;16.80;3.60;;;22.50;73.80;;;;;;5090780;28;20026;-45
2022/05/16 12:37:33;;;;;;;14.52;3.60;;;23.00;69.50;;;;;;5090775;28;20079;-53
2022/05/16 12:40:07;;;;;;;12.50;2.60;;;23.00;67.30;;;;;;5089663;28;20032;-49
2022/05/16 12:42:44;;;;;;;13.25;3.50;;;23.00;68.10;;;;;;5090752;28;20103;-43
2022/05/16 12:45:25;;;;;;;19.10;3.85;;;23.10;68.90;;;;;;5090849;28;20733;-49
2022/05/16 12:47:53;;;;;;;16.42;3.40;;;23.10;69.50;;;;;;5090978;28;20469;-43
2022/05/16 12:50:53;;;;;;;13.00;3.75;;;23.20;67.80;;;;;;5090981;28;20057;-48
2022/05/16 12:53:39;;;;;;;16.73;3.65;;;23.20;66.90;;;;;;5090841;28;20031;-49
2022/05/16 12:56:35;;;;;;;13.98;3.00;;;23.30;66.10;;;;;;5090870;28;20020;-55
2022/05/16 12:59:38;;;;;;;10.60;2.70;;;23.30;65.90;;;;;;5090818;28;20031;-54
2022/05/16 13:02:33;;;;;;;12.88;3.20;;;23.20;68.50;;;;;;5090793;28;20503;-45
2022/05/16 13:05:15;;;;;;;14.95;3.28;;;23.00;67.50;;;;;;5092633;28;20024;-53
2022/05/16 13:07:43;;;;;;;16.02;3.20;;;23.10;65.90;;;;;;5094919;28;20039;-39
2022/05/16 13:10:30;;;;;;;11.53;3.03;;;23.10;69.30;;;;;;5094243;28;20016;-40
2022/05/16 13:12:59;;;;;;;11.90;2.80;;;23.20;66.20;;;;;;5094301;28;20081;-44
2022/05/16 13:15:31;;;;;;;9.98;3.03;;;23.30;65.50;;;;;;5094498;28;20420;-40
2022/05/16 13:17:58;;;;;;;12.25;2.63;;;23.40;64.20;;;;;;5093952;28;20512;-49
2022/05/16 13:20:44;;;;;;;12.50;3.20;;;23.40;65.30;;;;;;5090793;28;20505;-47
2022/05/16 13:23:13;;;;;;;12.63;3.05;;;23.50;67.50;;;;;;5093526;28;20108;-40
2022/05/16 13:31:07;;;;;;;12.57;2.70;;;23.70;62.30;;;;;;5092398;28;20023;-40
2022/05/16 13:33:39;;;;;;;9.50;2.35;;;23.30;61.70;;;;;;5093325;28;20035;-48
2022/05/16 13:36:21;;;;;;;12.18;2.60;;;22.80;63.90;;;;;;5093482;28;20492;-48